Aérodrome :
LOGIN :

S'inscrire | Disclaimer

   EN    FR    IT 

 










Légende :    VFR   VFR Marginal   IFR   IFR Intensif   IFR Très Intensif
Visi : 
Plafond : 
>= 8 km
>= 3000ft
5 à 8 km
1000 à 3000 ft
1500m à 5 km
500 à 1000 ft
800 à 1500m
200 à 500 ft
< 800m
< 200 ft
Symboles :   Orages  Brouillard  Fortes neiges  Fortes précipitations  Vent > 20 kt
SIGMETs :   Divers  Orages  Givrage  Turbulence  Onde Orograph.  Cendres Volcan.







- Altitude de l'aérodrome : 135 ft
- Code IATA : EDI
- Voir les cartes d'approche


EGPH - Edinburgh

DERNIER METAR :
  • 172020Z 21011KT 9999 FEW024 BKN033 17/14 Q1004

METARs EXPIRÉS :
  • 171950Z 21010KT 9999 VCSH BKN024 17/14 Q1004
  • 171920Z 21011KT 9999 FEW028 17/14 Q1005
  • 171850Z 21012KT 9999 FEW034 17/14 Q1005
  • 171820Z 21008KT 9999 FEW034 SCT041 16/15 Q1005
  • 171750Z 22010KT 9999 -RA SCT019 16/14 Q1006

TAF TAF EGPH
Valide du 17 à 18h jusqu'au 18 à 18h UTC


171704Z 1718/1818 22009KT 9999 BKN020
TEMPO 1718/1724 6000 RA BKN008
PROB30
TEMPO 1721/1724 4000 +RA
PROB30
TEMPO 1800/1809 8000 -SHRA BKN012
TEMPO 1809/1818 25015G25KT 7000 SHRA
PROB40
TEMPO 1812/1818 4000 +SHRA BKN014CB
ATIS : +44 131 339 2823
Pas de NOTAMs connus pour ce terrain.



MET'MAP, la Météo Aéronautique d'un coup d'oeil ! - Copyright ORBIFLY Décembre 2007 - Disclaimer

ORBIFLY MET'MAP TEAM :

Programmation & Développement : Alexandra Zaïnal
Conception & Développement : Baudouin d'Aumeries
Co-Programmation & Développement : Marc-Olivier Méhu
Soutien technique & logistique : Manuel Goepfert

Contact : metmap@orbifly.com




SOURCES & CREDITS :

   NOAA